Time;durP1;ratioP1;P1;durP2;ratioP2;P2;SDS_P1;SDS_P2;PMS_P1;PMS_P2;Temp;Humidity;BMP_temperature;BMP_pressure;BME280_temperature;BME280_humidity;BME280_pressure;Samples;Min_cycle;Max_cycle;Signal;HPM_P1;HPM_P2
2023/02/05 00:00:22;;;;;;;1.25;0.70;;;29.40;46.40;;;;;;5091132;28;20190;-47
2023/02/05 00:02:52;;;;;;;3.40;0.60;;;29.40;46.40;;;;;;5090847;28;20214;-48
2023/02/05 00:05:25;;;;;;;0.43;0.40;;;29.40;46.30;;;;;;5091237;28;20198;-46
2023/02/05 00:07:55;;;;;;;1.20;0.70;;;29.40;46.20;;;;;;5090837;28;20190;-47
2023/02/05 00:10:26;;;;;;;1.17;0.60;;;29.40;46.20;;;;;;5091156;28;20194;-47
2023/02/05 00:12:57;;;;;;;0.63;0.63;;;29.40;46.10;;;;;;5090789;28;20226;-48
2023/02/05 00:15:27;;;;;;;1.00;0.73;;;29.40;46.10;;;;;;5090732;28;20202;-50
2023/02/05 00:17:58;;;;;;;0.57;0.45;;;29.40;46.00;;;;;;5090892;28;20194;-47
2023/02/05 00:20:31;;;;;;;0.60;0.60;;;29.40;46.00;;;;;;5090980;28;20210;-47
2023/02/05 00:23:01;;;;;;;0.93;0.50;;;29.50;46.00;;;;;;5091019;28;20198;-52
2023/02/05 00:25:35;;;;;;;0.65;0.50;;;29.40;46.00;;;;;;5091265;28;20202;-48
2023/02/05 00:28:06;;;;;;;1.05;0.50;;;29.50;46.10;;;;;;5094644;28;20225;-51
2023/02/05 00:30:36;;;;;;;1.23;0.63;;;29.50;46.10;;;;;;5094486;28;20654;-48
2023/02/05 00:33:07;;;;;;;1.02;0.70;;;29.50;46.10;;;;;;5094379;28;20221;-50
2023/02/05 00:35:40;;;;;;;0.75;0.55;;;29.50;46.20;;;;;;5094389;28;20587;-52
2023/02/05 00:38:10;;;;;;;0.88;0.60;;;29.50;46.10;;;;;;5082043;28;20219;-48
2023/02/05 00:40:41;;;;;;;1.80;0.55;;;29.50;46.10;;;;;;5074215;28;20565;-49
2023/02/05 00:43:12;;;;;;;2.05;0.50;;;29.50;46.10;;;;;;5073986;28;20202;-48
2023/02/05 00:45:42;;;;;;;0.60;0.40;;;29.50;46.00;;;;;;5074074;28;20195;-50
2023/02/05 00:48:13;;;;;;;1.45;0.60;;;29.50;45.90;;;;;;5073701;28;20225;-50
2023/02/05 00:50:45;;;;;;;0.63;0.52;;;29.50;45.90;;;;;;5074157;28;20202;-48
2023/02/05 00:53:16;;;;;;;0.70;0.50;;;29.50;45.90;;;;;;5073787;28;20223;-51
2023/02/05 00:55:47;;;;;;;1.25;0.55;;;29.60;45.90;;;;;;5073732;28;20229;-50
2023/02/05 00:58:18;;;;;;;0.55;0.55;;;29.50;45.80;;;;;;5073639;28;20573;-51
2023/02/05 01:00:49;;;;;;;0.50;0.43;;;29.50;45.80;;;;;;5076068;28;20195;-50
2023/02/05 01:03:20;;;;;;;0.70;0.60;;;29.60;45.80;;;;;;5073747;28;20195;-48
2023/02/05 01:05:53;;;;;;;0.70;0.40;;;29.60;45.80;;;;;;5073634;28;20206;-48
2023/02/05 01:08:24;;;;;;;1.15;0.45;;;29.50;45.70;;;;;;5087528;28;20241;-47
2023/02/05 01:10:55;;;;;;;0.95;0.50;;;29.60;45.80;;;;;;5093795;28;20198;-48
2023/02/05 01:13:26;;;;;;;0.82;0.60;;;29.60;45.90;;;;;;5093473;28;20701;-47
2023/02/05 01:15:57;;;;;;;0.68;0.38;;;29.60;45.90;;;;;;5093564;28;20549;-56
2023/02/05 01:18:28;;;;;;;0.50;0.50;;;29.60;45.90;;;;;;5093371;28;20225;-49
2023/02/05 01:21:01;;;;;;;0.40;0.38;;;29.60;45.80;;;;;;5093682;28;20202;-51
2023/02/05 01:23:32;;;;;;;0.98;0.60;;;29.60;45.80;;;;;;5093372;28;20202;-49
2023/02/05 01:26:03;;;;;;;1.05;0.60;;;29.60;45.80;;;;;;5093062;28;20557;-51
2023/02/05 01:28:33;;;;;;;0.82;0.40;;;29.60;45.80;;;;;;5093514;28;20214;-49
2023/02/05 01:31:04;;;;;;;1.17;0.50;;;29.60;46.40;;;;;;5084854;28;20191;-51
2023/02/05 01:33:35;;;;;;;1.42;0.45;;;29.60;45.80;;;;;;5072772;28;20218;-52
2023/02/05 01:36:08;;;;;;;0.63;0.43;;;29.50;45.70;;;;;;5072838;28;20199;-48
2023/02/05 01:38:38;;;;;;;1.58;0.52;;;29.60;45.80;;;;;;5088949;28;20371;-50
2023/02/05 01:41:11;;;;;;;0.98;0.50;;;29.60;45.70;;;;;;5093231;28;20201;-52
2023/02/05 01:43:41;;;;;;;0.82;0.55;;;29.60;45.70;;;;;;5092937;28;20237;-47
2023/02/05 01:46:25;;;;;;;0.90;0.40;;;29.60;45.70;;;;;;5092958;28;20194;-51
2023/02/05 01:48:58;;;;;;;0.47;0.30;;;29.60;45.70;;;;;;5093271;28;20677;-51
2023/02/05 01:51:32;;;;;;;0.80;0.45;;;29.60;45.70;;;;;;5093169;28;20685;-47
2023/02/05 01:54:03;;;;;;;0.60;0.57;;;29.60;45.70;;;;;;5093034;28;20205;-48
2023/02/05 01:56:38;;;;;;;0.80;0.50;;;29.60;45.70;;;;;;5093181;28;20197;-52
2023/02/05 01:59:12;;;;;;;1.08;0.60;;;29.60;45.70;;;;;;5092960;28;20292;-49
2023/02/05 02:01:43;;;;;;;0.50;0.40;;;29.60;45.80;;;;;;5092859;28;20206;-47
2023/02/05 02:04:16;;;;;;;0.70;0.57;;;29.60;45.80;;;;;;5092781;28;20194;-50
2023/02/05 02:06:49;;;;;;;0.65;0.60;;;29.60;45.70;;;;;;5092414;28;20194;-49
2023/02/05 02:09:20;;;;;;;1.27;0.60;;;29.50;45.70;;;;;;5092865;28;20228;-47
2023/02/05 02:11:51;;;;;;;0.73;0.40;;;29.60;45.70;;;;;;5092763;28;20205;-47
2023/02/05 02:14:22;;;;;;;0.50;0.45;;;29.60;45.70;;;;;;5092533;28;20198;-48
2023/02/05 02:16:54;;;;;;;0.98;0.60;;;29.60;45.70;;;;;;5092566;28;20190;-48
2023/02/05 02:19:33;;;;;;;0.85;0.55;;;29.60;45.80;;;;;;5072133;28;20215;-50
2023/02/05 02:22:27;;;;;;;0.80;0.50;;;29.60;45.80;;;;;;5071974;28;20203;-48
2023/02/05 02:25:24;;;;;;;1.20;0.40;;;29.50;45.70;;;;;;5078846;28;20539;-47
2023/02/05 02:28:03;;;;;;;0.70;0.45;;;29.60;45.80;;;;;;5085886;28;20202;-50
2023/02/05 02:30:41;;;;;;;0.65;0.45;;;29.60;46.40;;;;;;5091895;28;20190;-49
2023/02/05 02:33:20;;;;;;;0.85;0.30;;;29.60;45.80;;;;;;5091826;28;20213;-49
2023/02/05 02:36:00;;;;;;;0.30;0.30;;;29.50;45.70;;;;;;5092212;28;20663;-48
2023/02/05 02:38:33;;;;;;;0.75;0.52;;;29.50;45.80;;;;;;5076646;28;20214;-47
2023/02/05 02:41:08;;;;;;;1.10;0.47;;;29.50;45.70;;;;;;5071529;28;20210;-50
2023/02/05 02:43:47;;;;;;;0.40;0.40;;;29.60;45.80;;;;;;5071881;28;20198;-48
2023/02/05 02:46:23;;;;;;;0.40;0.40;;;29.50;45.80;;;;;;5072003;28;20195;-47
2023/02/05 02:48:56;;;;;;;0.73;0.43;;;29.60;45.90;;;;;;5071241;28;20218;-50
2023/02/05 02:51:29;;;;;;;0.40;0.40;;;29.60;45.90;;;;;;5071585;28;20202;-50
2023/02/05 02:54:02;;;;;;;0.77;0.40;;;29.60;45.80;;;;;;5071126;28;20258;-47
2023/02/05 02:56:35;;;;;;;0.85;0.40;;;29.50;45.80;;;;;;5070937;28;20214;-49
2023/02/05 02:59:10;;;;;;;0.73;0.60;;;29.60;45.90;;;;;;5074021;28;20566;-47
2023/02/05 03:01:43;;;;;;;0.50;0.50;;;29.50;45.80;;;;;;5071796;28;20215;-47
2023/02/05 03:04:20;;;;;;;0.50;0.50;;;29.60;46.00;;;;;;5071477;28;20234;-48
2023/02/05 03:06:53;;;;;;;0.80;0.60;;;29.50;45.90;;;;;;5072746;28;20199;-48
2023/02/05 03:09:31;;;;;;;0.50;0.40;;;29.50;45.90;;;;;;5091795;28;20222;-45
2023/02/05 03:12:02;;;;;;;1.20;0.40;;;29.50;46.00;;;;;;5091674;28;20654;-49
2023/02/05 03:14:35;;;;;;;0.80;0.73;;;29.50;46.00;;;;;;5091539;28;20202;-50
2023/02/05 03:17:06;;;;;;;1.33;0.60;;;29.50;46.00;;;;;;5091954;28;20198;-49
2023/02/05 03:19:37;;;;;;;1.55;0.68;;;29.50;46.00;;;;;;5091651;28;20214;-49
2023/02/05 03:22:09;;;;;;;0.80;0.60;;;29.50;46.00;;;;;;5091590;28;20205;-48
2023/02/05 03:24:41;;;;;;;0.77;0.55;;;29.50;46.00;;;;;;5091584;28;20198;-50
2023/02/05 03:27:12;;;;;;;0.75;0.60;;;29.50;46.00;;;;;;5089729;28;20222;-51
2023/02/05 03:29:45;;;;;;;0.60;0.50;;;29.50;46.00;;;;;;5089482;28;20225;-50
2023/02/05 03:32:27;;;;;;;0.52;0.40;;;29.50;46.10;;;;;;5091327;28;20239;-50
2023/02/05 03:35:11;;;;;;;0.50;0.50;;;29.50;46.10;;;;;;5091590;28;20198;-51
2023/02/05 03:37:47;;;;;;;0.85;0.50;;;29.50;46.10;;;;;;5091154;28;20657;-53
2023/02/05 03:40:27;;;;;;;1.88;0.50;;;29.50;46.10;;;;;;5090920;28;20194;-50
2023/02/05 03:43:08;;;;;;;0.70;0.40;;;29.50;46.10;;;;;;5091350;28;20204;-49
2023/02/05 03:45:51;;;;;;;0.82;0.52;;;29.50;46.10;;;;;;5091320;28;20190;-48
2023/02/05 03:48:47;;;;;;;1.25;0.70;;;29.50;46.10;;;;;;5091304;28;20221;-52
2023/02/05 03:51:30;;;;;;;0.70;0.43;;;29.50;46.10;;;;;;5091343;28;20575;-50
2023/02/05 03:54:09;;;;;;;0.88;0.60;;;29.50;46.10;;;;;;5091349;28;20815;-49
2023/02/05 03:56:47;;;;;;;0.63;0.40;;;29.50;46.10;;;;;;5091433;28;20198;-49
2023/02/05 03:59:19;;;;;;;0.85;0.55;;;29.50;46.10;;;;;;5091280;28;20214;-46
2023/02/05 04:01:52;;;;;;;0.47;0.47;;;29.50;46.10;;;;;;5093031;28;20202;-48
2023/02/05 04:04:23;;;;;;;1.67;0.50;;;29.50;46.10;;;;;;5094707;28;20198;-51
2023/02/05 04:06:55;;;;;;;1.15;0.35;;;29.50;46.00;;;;;;5095032;28;20194;-47
2023/02/05 04:09:25;;;;;;;0.70;0.50;;;29.50;46.00;;;;;;5094561;28;20210;-51
2023/02/05 04:11:56;;;;;;;1.05;0.50;;;29.50;45.90;;;;;;5094846;28;20190;-53
2023/02/05 04:14:27;;;;;;;0.43;0.28;;;29.50;45.80;;;;;;5094965;28;20575;-52
2023/02/05 04:16:59;;;;;;;0.30;0.28;;;29.60;45.80;;;;;;5095339;28;20224;-49
2023/02/05 04:19:30;;;;;;;1.58;0.68;;;29.60;45.80;;;;;;5094629;28;20214;-52
2023/02/05 04:22:01;;;;;;;0.85;0.52;;;29.60;45.80;;;;;;5094391;28;20568;-54
2023/02/05 04:24:31;;;;;;;0.95;0.40;;;29.60;45.80;;;;;;5094570;28;20207;-48
2023/02/05 04:27:02;;;;;;;0.85;0.50;;;29.60;45.90;;;;;;5094534;28;20190;-52
2023/02/05 04:29:33;;;;;;;1.40;0.43;;;29.60;45.90;;;;;;5093881;28;20229;-48
2023/02/05 04:32:05;;;;;;;0.50;0.40;;;29.60;45.80;;;;;;5094032;28;20194;-47
2023/02/05 04:34:36;;;;;;;0.73;0.32;;;29.60;45.80;;;;;;5093414;28;20214;-49
2023/02/05 04:37:16;;;;;;;0.30;0.30;;;29.60;45.80;;;;;;5090763;28;20199;-47
2023/02/05 04:39:48;;;;;;;1.20;0.38;;;29.60;45.80;;;;;;5074182;28;20679;-48
2023/02/05 04:42:27;;;;;;;0.57;0.40;;;29.70;45.70;;;;;;5074167;28;20195;-47
2023/02/05 04:45:01;;;;;;;0.40;0.30;;;29.60;45.60;;;;;;5073142;28;20225;-48
2023/02/05 04:47:35;;;;;;;0.52;0.22;;;29.70;45.60;;;;;;5074194;28;20677;-47
2023/02/05 04:50:06;;;;;;;0.75;0.30;;;29.70;45.50;;;;;;5076369;28;20217;-48
2023/02/05 04:52:37;;;;;;;0.82;0.35;;;29.70;45.50;;;;;;5073619;28;20698;-49
2023/02/05 04:55:08;;;;;;;2.05;0.40;;;29.70;45.40;;;;;;5073862;28;20530;-47
2023/02/05 04:57:39;;;;;;;0.82;0.40;;;29.70;45.40;;;;;;5073790;28;20198;-49
2023/02/05 05:01:04;;;;;;;1.05;0.40;;;29.70;45.30;;;;;;5073715;28;20301;-51
2023/02/05 05:03:36;;;;;;;0.52;0.30;;;29.70;45.30;;;;;;5073448;28;20218;-51
2023/02/05 05:06:08;;;;;;;1.75;0.50;;;29.70;45.30;;;;;;5073114;28;20199;-50
2023/02/05 05:08:39;;;;;;;0.38;0.38;;;29.70;45.30;;;;;;5090084;28;20580;-49
2023/02/05 05:11:11;;;;;;;0.73;0.38;;;29.70;45.30;;;;;;5093783;28;20205;-51
2023/02/05 05:13:42;;;;;;;0.22;0.13;;;29.70;45.40;;;;;;5093224;28;20710;-53
2023/02/05 05:16:13;;;;;;;0.32;0.30;;;29.70;45.30;;;;;;5094272;28;20198;-54
2023/02/05 05:18:46;;;;;;;0.50;0.30;;;29.70;45.40;;;;;;5093349;28;20225;-51
2023/02/05 05:21:17;;;;;;;0.80;0.40;;;29.70;45.30;;;;;;5093625;28;20685;-48
2023/02/05 05:23:47;;;;;;;0.40;0.30;;;29.70;45.30;;;;;;5077074;28;20269;-52
2023/02/05 05:26:18;;;;;;;0.30;0.30;;;29.70;45.30;;;;;;5073165;28;20198;-52
2023/02/05 05:28:49;;;;;;;0.40;0.40;;;29.70;45.30;;;;;;5072724;28;20215;-48
2023/02/05 05:31:20;;;;;;;1.20;0.30;;;29.70;45.30;;;;;;5072545;28;20203;-50
2023/02/05 05:34:05;;;;;;;0.55;0.30;;;29.70;45.20;;;;;;5072612;28;20270;-51
2023/02/05 05:36:46;;;;;;;0.55;0.35;;;29.70;45.00;;;;;;5072525;28;20203;-52
2023/02/05 05:44:59;;;;;;;0.50;0.40;;;29.80;44.80;;;;;;5093319;28;20190;-52
2023/02/05 05:47:30;;;;;;;0.38;0.30;;;29.70;44.90;;;;;;5093023;28;20190;-51
2023/02/05 05:50:02;;;;;;;0.45;0.20;;;29.80;44.90;;;;;;5093020;28;20214;-53
2023/02/05 05:52:33;;;;;;;0.20;0.20;;;29.80;44.80;;;;;;5093022;28;20553;-53
2023/02/05 05:55:04;;;;;;;0.50;0.40;;;29.80;44.80;;;;;;5092916;28;20233;-50
2023/02/05 05:57:34;;;;;;;0.55;0.30;;;29.80;44.80;;;;;;5092594;28;20205;-50
2023/02/05 06:00:05;;;;;;;1.08;0.40;;;29.80;44.80;;;;;;5092579;28;20221;-50
2023/02/05 06:02:42;;;;;;;0.30;0.30;;;29.80;44.80;;;;;;5092656;28;20387;-51
2023/02/05 06:05:15;;;;;;;0.20;0.20;;;29.80;44.80;;;;;;5092542;28;20277;-48
2023/02/05 06:07:46;;;;;;;0.20;0.20;;;29.90;44.90;;;;;;5092016;28;20190;-51
2023/02/05 06:10:16;;;;;;;0.77;0.32;;;29.90;44.80;;;;;;5092785;28;20201;-49
2023/02/05 06:12:47;;;;;;;0.20;0.20;;;29.90;44.90;;;;;;5092554;28;20557;-52
2023/02/05 06:15:18;;;;;;;0.38;0.30;;;29.90;44.90;;;;;;5092437;28;20209;-51
2023/02/05 06:17:49;;;;;;;0.25;0.25;;;29.90;44.80;;;;;;5092417;28;20197;-52
2023/02/05 06:20:21;;;;;;;0.20;0.20;;;29.90;44.80;;;;;;5092124;28;20221;-49
2023/02/05 06:22:52;;;;;;;0.38;0.20;;;30.00;44.80;;;;;;5092205;28;20194;-51
2023/02/05 06:25:23;;;;;;;0.30;0.20;;;30.00;44.80;;;;;;5091396;28;20646;-54
2023/02/05 06:27:53;;;;;;;1.20;0.30;;;29.90;44.70;;;;;;5091865;28;20190;-48
2023/02/05 06:30:24;;;;;;;0.35;0.30;;;30.00;44.80;;;;;;5091971;28;20189;-49
2023/02/05 06:32:55;;;;;;;0.17;0.17;;;30.00;44.80;;;;;;5092302;28;20190;-54
2023/02/05 06:35:27;;;;;;;0.45;0.30;;;30.00;44.80;;;;;;5092261;28;20209;-48
2023/02/05 06:37:58;;;;;;;0.40;0.28;;;30.00;45.30;;;;;;5091617;28;20725;-55
2023/02/05 06:40:29;;;;;;;0.52;0.25;;;30.00;44.70;;;;;;5092237;28;20200;-56
2023/02/05 06:42:59;;;;;;;1.02;0.20;;;30.00;44.70;;;;;;5092041;28;20194;-53
2023/02/05 06:45:30;;;;;;;0.22;0.20;;;30.00;44.70;;;;;;5092099;28;20590;-52
2023/02/05 06:48:01;;;;;;;0.43;0.32;;;30.10;44.80;;;;;;5091674;28;20198;-54
2023/02/05 06:50:33;;;;;;;0.77;0.30;;;30.10;44.70;;;;;;5091889;28;20194;-51
2023/02/05 06:53:04;;;;;;;0.52;0.20;;;30.10;44.60;;;;;;5092047;28;20202;-53
2023/02/05 06:55:35;;;;;;;0.32;0.22;;;30.10;44.60;;;;;;5091997;28;20198;-55
2023/02/05 06:58:06;;;;;;;0.55;0.20;;;30.10;44.40;;;;;;5091655;28;20299;-54
2023/02/05 07:00:37;;;;;;;1.63;0.28;;;30.10;44.30;;;;;;5079536;28;20191;-51
2023/02/05 07:03:08;;;;;;;0.50;0.20;;;30.10;44.20;;;;;;5071641;28;20217;-52
2023/02/05 07:05:40;;;;;;;0.50;0.20;;;30.10;44.10;;;;;;5071296;28;20191;-51
2023/02/05 07:08:11;;;;;;;0.43;0.20;;;30.00;44.20;;;;;;5083808;28;20686;-53
2023/02/05 07:10:42;;;;;;;0.65;0.30;;;30.10;44.30;;;;;;5091674;28;20190;-53
2023/02/05 07:13:12;;;;;;;0.40;0.20;;;30.10;44.30;;;;;;5091609;28;20650;-56
2023/02/05 07:15:43;;;;;;;0.52;0.20;;;30.00;44.30;;;;;;5091498;28;20193;-52
2023/02/05 07:18:14;;;;;;;0.77;0.20;;;30.10;44.40;;;;;;5091599;28;20218;-50
2023/02/05 07:20:47;;;;;;;0.57;0.45;;;30.10;44.40;;;;;;5091376;28;20658;-52
2023/02/05 07:23:17;;;;;;;0.38;0.20;;;30.10;44.40;;;;;;5091778;28;20194;-54
2023/02/05 07:25:48;;;;;;;0.30;0.20;;;30.10;44.50;;;;;;5085653;28;20568;-55
2023/02/05 07:28:18;;;;;;;0.38;0.30;;;30.10;44.40;;;;;;5070887;28;20218;-52
2023/02/05 07:30:49;;;;;;;0.35;0.20;;;30.10;44.40;;;;;;5070561;28;20190;-54
2023/02/05 07:33:20;;;;;;;0.20;0.20;;;30.10;44.30;;;;;;5070658;28;20199;-54
2023/02/05 07:35:53;;;;;;;0.13;0.10;;;30.10;44.10;;;;;;5073114;28;20221;-51
2023/02/05 07:38:24;;;;;;;1.10;0.20;;;30.10;44.00;;;;;;5089300;28;20218;-51
2023/02/05 07:40:55;;;;;;;1.35;0.20;;;30.10;43.90;;;;;;5095466;28;20574;-52
2023/02/05 07:43:25;;;;;;;0.40;0.20;;;30.00;43.90;;;;;;5095378;28;20201;-51
2023/02/05 07:46:00;;;;;;;0.50;0.20;;;30.00;43.80;;;;;;5095224;28;20669;-51
2023/02/05 07:48:30;;;;;;;0.47;0.30;;;30.00;43.80;;;;;;5094986;28;20233;-51
2023/02/05 07:51:03;;;;;;;0.50;0.20;;;30.00;43.70;;;;;;5095533;28;20198;-49
2023/02/05 07:53:34;;;;;;;0.32;0.22;;;30.00;43.80;;;;;;5095146;28;20673;-50
2023/02/05 07:56:06;;;;;;;0.77;0.30;;;30.00;43.80;;;;;;5095258;28;20684;-53
2023/02/05 07:58:37;;;;;;;0.13;0.10;;;30.00;43.90;;;;;;5095211;28;20226;-52
2023/02/05 08:01:08;;;;;;;0.40;0.20;;;30.00;43.90;;;;;;5095132;28;20198;-51
2023/02/05 08:03:38;;;;;;;0.35;0.25;;;29.90;43.90;;;;;;5095095;28;20205;-50
2023/02/05 08:06:15;;;;;;;0.20;0.10;;;30.00;44.00;;;;;;5094788;28;20194;-52
2023/02/05 08:08:46;;;;;;;0.43;0.30;;;29.90;44.00;;;;;;5094452;28;20229;-53
2023/02/05 08:11:17;;;;;;;0.45;0.20;;;29.90;44.10;;;;;;5094569;28;20191;-52
2023/02/05 08:13:48;;;;;;;0.20;0.20;;;29.90;44.10;;;;;;5094698;28;20194;-51
2023/02/05 08:16:19;;;;;;;0.30;0.20;;;29.90;44.10;;;;;;5094893;28;20205;-52
2023/02/05 08:18:51;;;;;;;0.20;0.20;;;29.90;44.20;;;;;;5094458;28;20682;-50
2023/02/05 08:21:24;;;;;;;0.30;0.20;;;29.90;44.10;;;;;;5094984;28;20209;-53
2023/02/05 08:23:56;;;;;;;0.17;0.17;;;29.90;44.10;;;;;;5094864;28;20194;-51
2023/02/05 08:26:26;;;;;;;0.40;0.20;;;29.90;44.00;;;;;;5094725;28;20194;-50
2023/02/05 08:28:58;;;;;;;1.95;0.22;;;29.90;44.60;;;;;;5094107;28;20214;-52
2023/02/05 08:31:29;;;;;;;1.08;0.40;;;29.80;43.80;;;;;;5094599;28;20194;-50
2023/02/05 08:34:00;;;;;;;0.20;0.20;;;29.80;43.80;;;;;;5094627;28;20255;-52
2023/02/05 08:36:33;;;;;;;0.20;0.20;;;29.80;43.80;;;;;;5094434;28;20194;-52
2023/02/05 08:39:03;;;;;;;1.33;0.30;;;29.80;43.80;;;;;;5086425;28;20233;-53
2023/02/05 08:41:34;;;;;;;0.30;0.22;;;29.80;43.80;;;;;;5094171;28;20198;-52
2023/02/05 08:44:05;;;;;;;2.15;0.40;;;29.70;43.80;;;;;;5094716;28;20352;-49
2023/02/05 08:46:35;;;;;;;1.83;0.22;;;29.70;43.80;;;;;;5093601;28;20678;-51
2023/02/05 08:49:06;;;;;;;1.35;0.40;;;29.70;43.70;;;;;;5094113;28;20245;-49
2023/02/05 08:51:39;;;;;;;0.40;0.22;;;29.70;43.80;;;;;;5093931;28;20201;-51
2023/02/05 08:54:11;;;;;;;2.10;0.20;;;29.70;43.70;;;;;;5093729;28;20674;-51
2023/02/05 08:56:43;;;;;;;0.40;0.35;;;29.70;43.70;;;;;;5093796;28;20704;-48
2023/02/05 08:59:14;;;;;;;0.30;0.30;;;29.60;43.70;;;;;;5093469;28;20709;-49
2023/02/05 09:01:45;;;;;;;0.50;0.20;;;29.60;43.70;;;;;;5093549;28;20208;-49
2023/02/05 09:04:17;;;;;;;0.52;0.20;;;29.60;43.60;;;;;;5093914;28;20209;-52
2023/02/05 09:06:50;;;;;;;0.32;0.30;;;29.60;43.50;;;;;;5079586;28;20194;-51
2023/02/05 09:09:21;;;;;;;0.52;0.40;;;29.60;43.40;;;;;;5093742;28;20562;-48
2023/02/05 09:11:52;;;;;;;0.50;0.40;;;29.60;43.30;;;;;;5093695;28;20217;-48
2023/02/05 09:14:22;;;;;;;1.23;0.45;;;29.50;43.10;;;;;;5093688;28;20611;-47
2023/02/05 09:16:53;;;;;;;1.05;0.30;;;29.50;43.10;;;;;;5093746;28;20189;-52
2023/02/05 09:19:29;;;;;;;1.08;0.40;;;29.50;43.00;;;;;;5093524;28;20221;-49
2023/02/05 09:22:02;;;;;;;1.08;0.40;;;29.40;42.80;;;;;;5093883;28;20756;-48
2023/02/05 09:24:33;;;;;;;0.90;0.30;;;29.50;42.90;;;;;;5093396;28;20198;-48
2023/02/05 09:27:04;;;;;;;1.38;0.40;;;29.40;42.80;;;;;;5085324;28;20195;-47
2023/02/05 09:29:34;;;;;;;1.58;0.50;;;29.40;42.80;;;;;;5073105;28;20297;-46
2023/02/05 09:32:05;;;;;;;0.98;0.60;;;29.40;42.80;;;;;;5073253;28;20191;-51
2023/02/05 09:34:36;;;;;;;1.80;0.70;;;29.40;42.30;;;;;;5072977;28;20681;-49
2023/02/05 09:37:08;;;;;;;1.10;0.50;;;29.30;41.80;;;;;;5076384;28;20642;-57
2023/02/05 09:39:39;;;;;;;2.95;0.60;;;29.30;41.90;;;;;;5093223;28;20241;-52
2023/02/05 09:42:16;;;;;;;4.53;0.70;;;29.20;41.80;;;;;;5093020;28;20206;-53
2023/02/05 09:44:58;;;;;;;1.52;0.50;;;29.20;41.80;;;;;;5093179;28;20198;-53
2023/02/05 09:47:34;;;;;;;2.33;0.70;;;29.20;42.00;;;;;;5092966;28;20281;-55
2023/02/05 09:50:08;;;;;;;1.52;0.55;;;29.20;42.10;;;;;;5092421;28;20222;-49
2023/02/05 09:52:44;;;;;;;2.22;0.50;;;29.20;42.20;;;;;;5092702;28;20281;-50
2023/02/05 09:55:22;;;;;;;1.05;0.50;;;29.10;42.20;;;;;;5093036;28;20218;-52
2023/02/05 09:57:55;;;;;;;0.70;0.40;;;29.10;42.30;;;;;;5092939;28;20276;-53
2023/02/05 10:00:30;;;;;;;1.08;0.38;;;29.10;42.20;;;;;;5092671;28;20225;-51
2023/02/05 10:03:09;;;;;;;1.38;0.63;;;29.10;42.20;;;;;;5092977;28;20206;-50
2023/02/05 10:05:47;;;;;;;1.48;0.63;;;29.10;42.30;;;;;;5092904;28;20221;-50
2023/02/05 10:08:28;;;;;;;2.75;0.70;;;29.00;42.20;;;;;;5092859;28;20214;-49
2023/02/05 10:11:01;;;;;;;2.63;0.60;;;29.00;42.10;;;;;;5092745;28;20194;-54
2023/02/05 10:13:36;;;;;;;1.70;0.43;;;29.00;42.10;;;;;;5092667;28;20198;-52
2023/02/05 10:16:31;;;;;;;2.15;0.50;;;29.00;42.10;;;;;;5092564;28;20233;-51
2023/02/05 10:19:26;;;;;;;1.75;0.52;;;29.00;42.20;;;;;;5079798;28;20213;-51
2023/02/05 10:22:11;;;;;;;1.38;0.65;;;28.90;42.10;;;;;;5092420;28;20202;-51
2023/02/05 10:25:01;;;;;;;0.77;0.40;;;28.90;42.10;;;;;;5092433;28;20202;-54
2023/02/05 10:27:40;;;;;;;1.15;0.60;;;28.90;42.10;;;;;;5092358;28;20194;-49
2023/02/05 10:30:20;;;;;;;1.25;0.50;;;28.90;42.10;;;;;;5092670;28;20271;-49
2023/02/05 10:32:58;;;;;;;2.90;0.75;;;28.90;42.10;;;;;;5092389;28;20220;-51
2023/02/05 10:35:36;;;;;;;0.65;0.40;;;28.90;42.10;;;;;;5091737;28;20221;-49
2023/02/05 10:38:12;;;;;;;1.27;0.50;;;28.80;42.10;;;;;;5080073;28;20198;-52
2023/02/05 10:40:46;;;;;;;0.98;0.50;;;28.80;42.10;;;;;;5071339;28;20194;-53
2023/02/05 10:43:25;;;;;;;1.02;0.40;;;28.80;42.00;;;;;;5076910;28;20654;-52
2023/02/05 10:45:56;;;;;;;0.93;0.40;;;28.80;42.00;;;;;;5092267;28;20194;-50
2023/02/05 10:48:38;;;;;;;1.55;0.60;;;28.80;42.10;;;;;;5092026;28;20214;-53
2023/02/05 10:51:12;;;;;;;0.73;0.30;;;28.80;42.10;;;;;;5091428;28;20205;-52
2023/02/05 10:53:43;;;;;;;0.93;0.57;;;28.70;42.00;;;;;;5091441;28;20246;-53
2023/02/05 10:56:19;;;;;;;0.85;0.45;;;28.70;42.10;;;;;;5091375;28;20225;-54
2023/02/05 10:58:55;;;;;;;0.82;0.40;;;28.70;42.10;;;;;;5091500;28;20213;-48
2023/02/05 11:01:27;;;;;;;1.75;0.52;;;28.70;42.20;;;;;;5091605;28;20567;-53
2023/02/05 11:04:02;;;;;;;0.82;0.40;;;28.70;42.20;;;;;;5091844;28;20555;-53
2023/02/05 11:06:37;;;;;;;0.63;0.40;;;28.60;42.10;;;;;;5091750;28;20208;-54
2023/02/05 11:09:32;;;;;;;1.05;0.50;;;28.60;42.10;;;;;;5091859;28;20209;-50
2023/02/05 11:12:08;;;;;;;0.30;0.30;;;28.60;42.20;;;;;;5092006;28;20194;-51
2023/02/05 11:14:42;;;;;;;0.60;0.38;;;28.60;42.20;;;;;;5083536;28;20186;-50
2023/02/05 11:17:23;;;;;;;0.63;0.38;;;28.60;42.10;;;;;;5071001;28;20624;-54
2023/02/05 11:19:57;;;;;;;0.50;0.40;;;28.60;42.20;;;;;;5070792;28;20217;-51
2023/02/05 11:22:29;;;;;;;1.15;0.50;;;28.60;42.20;;;;;;5071557;28;20194;-53
2023/02/05 11:25:16;;;;;;;0.73;0.50;;;28.50;42.10;;;;;;5070914;28;20662;-50
2023/02/05 11:27:56;;;;;;;1.20;0.40;;;28.50;42.00;;;;;;5070935;28;20195;-49
2023/02/05 11:30:30;;;;;;;1.05;0.40;;;28.50;42.10;;;;;;5071042;28;20198;-52
2023/02/05 11:33:18;;;;;;;0.80;0.50;;;28.50;42.00;;;;;;5070924;28;20252;-52
2023/02/05 11:35:55;;;;;;;1.48;0.52;;;28.50;42.00;;;;;;5071121;28;20218;-53
2023/02/05 11:38:31;;;;;;;1.33;0.50;;;28.40;42.00;;;;;;5071174;28;20221;-49
2023/02/05 11:41:04;;;;;;;0.50;0.40;;;28.40;42.00;;;;;;5071256;28;20198;-53
2023/02/05 11:43:39;;;;;;;1.45;0.50;;;28.40;42.00;;;;;;5071344;28;20202;-49
2023/02/05 11:46:12;;;;;;;0.85;0.43;;;28.40;42.00;;;;;;5071201;28;20191;-53
2023/02/05 11:48:44;;;;;;;1.42;0.60;;;28.30;41.90;;;;;;5071071;28;20216;-49
2023/02/05 11:51:17;;;;;;;2.38;0.77;;;28.30;41.90;;;;;;5070947;28;20672;-50
2023/02/05 11:53:55;;;;;;;0.55;0.40;;;28.30;41.90;;;;;;5071061;28;20203;-49
2023/02/05 11:56:27;;;;;;;1.02;0.55;;;28.30;41.90;;;;;;5070974;28;20226;-51
2023/02/05 11:59:07;;;;;;;0.50;0.40;;;28.30;41.90;;;;;;5071027;28;20219;-50
2023/02/05 12:01:38;;;;;;;1.27;0.68;;;28.30;41.90;;;;;;5070970;28;20662;-53
2023/02/05 12:04:20;;;;;;;1.25;0.50;;;28.30;41.90;;;;;;5071549;28;20567;-51
2023/02/05 12:06:54;;;;;;;0.82;0.50;;;28.20;41.90;;;;;;5071132;28;20199;-50
2023/02/05 12:09:26;;;;;;;0.63;0.40;;;28.20;41.90;;;;;;5071080;28;20713;-51
2023/02/05 12:12:10;;;;;;;3.10;0.60;;;28.20;41.90;;;;;;5070608;28;20205;-50
2023/02/05 12:14:50;;;;;;;2.22;0.50;;;28.20;41.80;;;;;;5071096;28;20292;-54
2023/02/05 12:17:32;;;;;;;1.23;0.60;;;28.20;41.70;;;;;;5070681;28;20253;-53
2023/02/05 12:20:24;;;;;;;1.30;0.60;;;28.10;41.70;;;;;;5071131;28;20211;-48
2023/02/05 12:23:28;;;;;;;1.10;0.70;;;28.10;41.70;;;;;;5072936;28;20194;-52
2023/02/05 12:26:22;;;;;;;0.88;0.40;;;28.10;41.70;;;;;;5065178;28;20226;-53
2023/02/05 12:29:05;;;;;;;1.05;0.50;;;28.10;41.70;;;;;;5073893;28;20222;-49
2023/02/05 12:31:49;;;;;;;0.70;0.50;;;28.00;41.60;;;;;;5074091;28;20199;-50
2023/02/05 12:34:29;;;;;;;1.27;0.50;;;28.00;41.60;;;;;;5074199;28;20256;-50
2023/02/05 12:37:13;;;;;;;1.55;0.70;;;28.00;41.60;;;;;;5074141;28;20218;-53
2023/02/05 12:39:48;;;;;;;0.93;0.55;;;28.00;41.60;;;;;;5088969;28;20263;-50
2023/02/05 12:42:31;;;;;;;0.85;0.50;;;28.00;41.60;;;;;;5094428;28;20194;-50
2023/02/05 12:45:32;;;;;;;1.10;0.50;;;27.90;41.50;;;;;;5094132;28;20194;-50
2023/02/05 12:48:28;;;;;;;1.25;0.50;;;27.90;41.60;;;;;;5074078;28;20199;-49
2023/02/05 12:51:11;;;;;;;1.98;0.52;;;27.90;41.60;;;;;;5073853;28;20198;-51
2023/02/05 12:53:51;;;;;;;1.50;0.60;;;27.90;41.60;;;;;;5074090;28;20654;-50
2023/02/05 12:56:46;;;;;;;1.17;0.57;;;27.90;41.70;;;;;;5074176;28;20694;-48
2023/02/05 12:59:22;;;;;;;1.70;0.50;;;27.80;41.70;;;;;;5071579;28;20215;-49
2023/02/05 13:01:58;;;;;;;1.08;0.60;;;27.80;41.70;;;;;;5073642;28;20206;-49
2023/02/05 13:04:36;;;;;;;1.30;0.50;;;27.80;41.70;;;;;;5073719;28;20561;-52
2023/02/05 13:07:13;;;;;;;0.98;0.60;;;27.80;41.70;;;;;;5073618;28;20202;-52
2023/02/05 13:09:52;;;;;;;1.02;0.52;;;27.80;41.60;;;;;;5073123;28;20698;-49
2023/02/05 13:12:26;;;;;;;2.38;0.55;;;27.70;41.50;;;;;;5073679;28;20202;-50
2023/02/05 13:15:03;;;;;;;0.77;0.50;;;27.70;41.60;;;;;;5073898;28;20487;-49
2023/02/05 13:17:39;;;;;;;1.42;0.57;;;27.70;41.60;;;;;;5073783;28;20202;-50
2023/02/05 13:28:38;;;;;;;1.88;0.70;;;27.70;41.50;;;;;;5073234;28;20211;-52
2023/02/05 13:28:53;;;;;;;1.13;0.50;;;27.70;41.60;;;;;;5073205;28;20620;-49
2023/02/05 13:31:29;;;;;;;2.60;0.60;;;27.70;41.70;;;;;;5072707;28;20194;-50
2023/02/05 13:34:05;;;;;;;1.83;0.50;;;27.70;41.70;;;;;;5072263;28;20197;-51
2023/02/05 13:37:12;;;;;;;0.90;0.45;;;27.60;41.60;;;;;;5072339;28;20222;-51